This is the latest recevied weather packets stored in our database for station/object N4OOJ-13. If no packets are shown the sender has not sent any weather packets the latest 10 day(s).
| Time | Temp. | Humidity | Pressure | Rain* | Wind** | Luminosity | Snow |
|---|---|---|---|---|---|---|---|
| 1777999823 | 27.22° C | 49% | 1019.3 hPa | 0 mm | - | - | - |
| 1777999221 | 27.78° C | 48% | 1019.7 hPa | 0 mm | - | - | - |
| 1777998628 | 27.78° C | 46% | 1019.7 hPa | 0 mm | - | - | - |
| 1777998021 | 27.78° C | 47% | 1019.7 hPa | 0 mm | - | - | - |
| 1777997417 | 27.22° C | 49% | 1020 hPa | 0 mm | - | - | - |
| 1777996816 | 27.78° C | 48% | 1020 hPa | 0 mm | - | - | - |
| 1777996230 | 27.78° C | 48% | 1020 hPa | 0 mm | - | - | - |
| 1777995629 | 27.78° C | 48% | 1020 hPa | 0 mm | - | - | - |
| 1777995028 | 26.67° C | 52% | 1019.9 hPa | 0 mm | - | - | - |
| 1777994422 | 26.67° C | 50% | 1019.9 hPa | 0 mm | - | - | - |
| 1777993822 | 26.67° C | 50% | 1019.9 hPa | 0 mm | - | - | - |
| 1777993221 | 26.11° C | 54% | 1020 hPa | 0 mm | - | - | - |
| 1777992627 | 26.11° C | 54% | 1020 hPa | 0 mm | - | - | - |
| 1777992021 | 25.56° C | 54% | 1020 hPa | 0 mm | - | - | - |
| 1777991421 | 25.56° C | 54% | 1019.9 hPa | 0 mm | - | - | - |
| 1777990817 | 25° C | 57% | 1019.9 hPa | 0 mm | - | - | - |
| 1777989629 | 23.89° C | 60% | 1019.9 hPa | 0 mm | - | - | - |
| 1777989027 | 26.11° C | 53% | 1019.8 hPa | 0 mm | - | - | - |
| 1777988432 | 26.11° C | 55% | 1019.9 hPa | 0 mm | - | - | - |
| 1777987822 | 25.56° C | 56% | 1019.9 hPa | 0 mm | - | - | - |
| 1777987217 | 24.44° C | 63% | 1019.8 hPa | 0 mm | - | - | - |
| 1777986630 | 23.89° C | 67% | 1019.9 hPa | 0 mm | - | - | - |
| 1777986025 | 23.33° C | 68% | 1019.8 hPa | 0 mm | - | - | - |
| 1777985419 | 21.11° C | 76% | 1019.7 hPa | 0 mm | - | - | - |
| 1777984832 | 20.56° C | 77% | 1019.8 hPa | 0 mm | - | - | - |
* Rain latest hour (hover to see other rain measurements)
** Current wind speed in m/s (hover to see current wind gust speed)